Time;durP1;ratioP1;P1;durP2;ratioP2;P2;SDS_P1;SDS_P2;PMS_P1;PMS_P2;Temp;Humidity;BMP_temperature;BMP_pressure;BME280_temperature;BME280_humidity;BME280_pressure;Samples;Min_cycle;Max_cycle;Signal;HPM_P1;HPM_P2
2022/01/12 00:03:04;;;;;;;5.63;3.28;;;4.30;96.90;;;;;;9180321;19;20014;-75
2022/01/12 00:06:12;;;;;;;6.47;3.53;;;4.30;96.90;;;;;;9178309;19;20030;-75
2022/01/12 00:09:17;;;;;;;6.50;3.55;;;4.30;96.90;;;;;;9179399;19;20006;-75
2022/01/12 00:12:22;;;;;;;6.35;3.55;;;4.30;96.90;;;;;;9177561;19;20021;-74
2022/01/12 00:15:27;;;;;;;5.82;3.70;;;4.30;96.90;;;;;;9178769;19;20010;-75
2022/01/12 00:18:33;;;;;;;5.65;3.42;;;4.30;96.90;;;;;;9179939;19;20010;-74
2022/01/12 00:21:41;;;;;;;7.13;3.25;;;4.30;96.90;;;;;;9179097;19;20080;-74
2022/01/12 00:25:22;;;;;;;5.22;3.60;;;4.30;96.90;;;;;;9177963;19;20007;-74
2022/01/12 00:34:54;;;;;;;5.03;3.35;;;4.30;96.90;;;;;;9180219;19;20010;-75
2022/01/12 00:38:02;;;;;;;5.63;3.60;;;4.30;96.90;;;;;;9185256;19;20017;-74
2022/01/12 00:41:07;;;;;;;5.18;3.70;;;4.30;96.90;;;;;;9188363;19;20019;-74
2022/01/12 00:44:22;;;;;;;4.25;3.05;;;4.30;96.90;;;;;;9187974;19;20014;-74
2022/01/12 00:47:27;;;;;;;6.22;4.03;;;4.30;96.90;;;;;;9187449;19;20011;-74
2022/01/12 00:50:35;;;;;;;5.20;3.67;;;4.30;96.90;;;;;;9185647;19;20602;-74
2022/01/12 00:53:46;;;;;;;4.20;3.25;;;4.30;96.90;;;;;;9182998;19;20021;-73
2022/01/12 00:56:51;;;;;;;4.03;2.83;;;4.30;96.90;;;;;;9188148;19;20389;-74
2022/01/12 00:59:56;;;;;;;5.38;3.50;;;4.30;96.90;;;;;;9185904;19;20018;-74
2022/01/12 01:03:02;;;;;;;4.38;3.50;;;4.30;97.00;;;;;;9186805;19;20025;-74
2022/01/12 01:06:11;;;;;;;5.35;3.10;;;4.30;96.90;;;;;;9187712;19;20025;-74
2022/01/12 01:09:20;;;;;;;4.70;3.20;;;4.30;96.90;;;;;;9184899;19;20014;-73
2022/01/12 01:12:29;;;;;;;4.93;3.33;;;4.30;96.90;;;;;;9187357;19;20393;-75
2022/01/12 01:15:59;;;;;;;4.60;2.90;;;4.30;96.90;;;;;;9187221;19;20026;-73
2022/01/12 01:25:42;;;;;;;4.22;3.15;;;4.30;96.90;;;;;;9185866;19;20053;-74
2022/01/12 01:28:49;;;;;;;3.60;2.90;;;4.30;96.90;;;;;;9185660;19;20010;-74
2022/01/12 01:31:54;;;;;;;4.32;3.30;;;4.30;96.90;;;;;;9185790;19;20465;-74
2022/01/12 01:34:59;;;;;;;4.50;3.17;;;4.30;96.90;;;;;;9187575;19;20485;-74
2022/01/12 01:38:05;;;;;;;4.40;2.70;;;4.30;97.00;;;;;;9185447;19;20476;-75
2022/01/12 01:41:14;;;;;;;5.55;3.38;;;4.30;97.00;;;;;;9186025;19;20077;-74
2022/01/12 01:54:22;;;;;;;4.35;3.10;;;4.30;97.00;;;;;;9182250;19;20014;-73
2022/01/12 01:57:31;;;;;;;4.22;3.40;;;4.30;97.00;;;;;;9187138;19;20006;-73
2022/01/12 02:00:37;;;;;;;5.57;3.63;;;4.30;97.00;;;;;;9183224;19;20388;-73
2022/01/12 02:03:48;;;;;;;3.35;2.90;;;4.30;97.00;;;;;;9186062;19;20015;-73
2022/01/12 02:06:58;;;;;;;5.85;3.33;;;4.30;97.00;;;;;;9186421;19;20022;-73
2022/01/12 02:10:03;;;;;;;5.20;3.35;;;4.30;97.00;;;;;;9184276;19;20003;-73
2022/01/12 02:13:22;;;;;;;5.47;3.20;;;4.30;97.00;;;;;;9182016;19;20010;-74
2022/01/12 02:16:33;;;;;;;4.07;2.78;;;4.30;97.00;;;;;;9181466;19;20014;-73
2022/01/12 02:19:57;;;;;;;6.90;3.60;;;4.30;97.00;;;;;;9182492;19;20841;-73
2022/01/12 02:36:29;;;;;;;5.18;3.55;;;4.30;97.00;;;;;;9182033;19;20014;-73
2022/01/12 02:39:53;;;;;;;7.30;3.88;;;4.30;97.00;;;;;;9181757;19;20442;-73
2022/01/12 02:43:08;;;;;;;3.88;2.88;;;4.40;97.00;;;;;;9181258;19;20017;-73
2022/01/12 02:56:12;;;;;;;5.22;3.70;;;4.40;97.10;;;;;;9182934;19;20026;-73
2022/01/12 02:59:17;;;;;;;5.57;3.20;;;4.40;97.00;;;;;;9182083;19;20014;-75
2022/01/12 03:02:28;;;;;;;5.38;3.65;;;4.40;97.10;;;;;;9183351;19;20053;-74
2022/01/12 03:05:45;;;;;;;4.20;3.50;;;4.40;97.10;;;;;;9180889;19;20465;-74
2022/01/12 03:08:52;;;;;;;3.90;3.22;;;4.40;97.10;;;;;;9181713;19;20472;-74
2022/01/12 03:12:00;;;;;;;4.90;3.60;;;4.40;97.10;;;;;;9180973;19;20007;-75
2022/01/12 03:15:08;;;;;;;4.22;3.28;;;4.40;97.10;;;;;;9181548;19;20010;-74
2022/01/12 03:18:13;;;;;;;4.72;2.90;;;4.40;97.10;;;;;;9180918;19;20849;-74
2022/01/12 03:21:20;;;;;;;4.95;3.40;;;4.40;97.10;;;;;;9183606;19;20031;-73
2022/01/12 03:24:26;;;;;;;6.05;3.30;;;4.40;97.10;;;;;;9181627;19;20021;-73
2022/01/12 03:27:33;;;;;;;3.55;3.17;;;4.50;97.10;;;;;;9182639;19;20022;-73
2022/01/12 03:30:47;;;;;;;4.50;3.05;;;4.50;97.10;;;;;;9182973;19;20018;-73
2022/01/12 03:33:57;;;;;;;6.45;3.47;;;4.50;97.10;;;;;;9182345;19;20740;-73
2022/01/12 03:37:39;;;;;;;4.18;3.30;;;4.40;97.10;;;;;;9183776;19;20022;-73
2022/01/12 03:40:43;;;;;;;4.90;3.42;;;4.50;97.10;;;;;;9178909;19;20014;-73
2022/01/12 03:43:51;;;;;;;4.22;2.78;;;4.50;97.10;;;;;;9179867;19;20373;-74
2022/01/12 03:46:56;;;;;;;3.80;2.97;;;4.50;97.10;;;;;;9180333;19;20014;-74
2022/01/12 03:50:04;;;;;;;3.85;2.75;;;4.50;97.10;;;;;;9180207;19;20015;-74
2022/01/12 03:53:12;;;;;;;3.13;2.50;;;4.50;97.10;;;;;;9177153;19;20015;-74
2022/01/12 03:56:18;;;;;;;3.63;2.47;;;4.50;97.10;;;;;;9180439;19;20595;-75
2022/01/12 03:59:26;;;;;;;3.55;2.60;;;4.50;97.00;;;;;;9181436;19;20164;-74
2022/01/12 04:02:33;;;;;;;2.90;2.60;;;4.50;97.10;;;;;;9182528;19;20021;-75
2022/01/12 04:08:18;;;;;;;3.53;2.55;;;4.50;97.00;;;;;;9180823;19;20006;-74
2022/01/12 04:09:05;;;;;;;3.08;2.40;;;4.50;97.10;;;;;;9179667;19;22721;-75
2022/01/12 04:12:11;;;;;;;2.67;2.30;;;4.50;97.10;;;;;;9183690;19;20094;-75
2022/01/12 04:15:22;;;;;;;3.03;2.42;;;4.50;97.10;;;;;;9190715;19;20010;-73
2022/01/12 04:18:27;;;;;;;3.67;2.90;;;4.50;97.10;;;;;;9191134;19;20011;-74
2022/01/12 04:21:40;;;;;;;3.58;2.50;;;4.50;97.10;;;;;;9185998;19;20041;-74
2022/01/12 04:24:45;;;;;;;4.18;2.65;;;4.50;97.10;;;;;;9186008;19;20006;-74
2022/01/12 04:27:50;;;;;;;3.22;2.45;;;4.60;97.10;;;;;;9187230;19;20022;-73
2022/01/12 04:30:59;;;;;;;3.60;2.67;;;4.60;97.10;;;;;;9188066;19;20362;-73
2022/01/12 04:34:09;;;;;;;3.83;2.70;;;4.50;97.00;;;;;;9186593;19;20038;-75
2022/01/12 04:37:14;;;;;;;4.60;2.67;;;4.60;97.10;;;;;;9185324;19;20022;-73
2022/01/12 04:40:20;;;;;;;2.60;2.33;;;4.50;97.00;;;;;;9185551;19;20018;-73
2022/01/12 04:43:27;;;;;;;3.33;2.72;;;4.50;97.10;;;;;;9184711;19;20077;-74
2022/01/12 04:46:51;;;;;;;5.10;3.00;;;4.60;97.10;;;;;;9186613;19;20030;-74
2022/01/12 04:49:59;;;;;;;5.13;3.10;;;4.60;97.10;;;;;;9188285;19;20491;-74
2022/01/12 04:53:05;;;;;;;3.83;2.95;;;4.60;97.10;;;;;;9182861;19;20015;-75
2022/01/12 04:56:11;;;;;;;3.75;3.13;;;4.60;97.10;;;;;;9185623;19;20006;-75
2022/01/12 04:59:17;;;;;;;5.00;3.20;;;4.60;97.10;;;;;;9186920;19;20417;-74
2022/01/12 05:09:13;;;;;;;5.30;3.85;;;4.60;97.10;;;;;;9184970;19;20015;-74
2022/01/12 05:15:37;;;;;;;7.13;3.67;;;4.60;97.10;;;;;;9185586;19;20781;-73
2022/01/12 05:18:46;;;;;;;5.85;3.70;;;4.60;97.10;;;;;;9186031;19;20021;-75
2022/01/12 05:21:51;;;;;;;5.10;3.60;;;4.60;97.10;;;;;;9184082;19;20077;-75
2022/01/12 05:24:56;;;;;;;6.18;3.55;;;4.60;97.10;;;;;;9185496;19;20052;-75
2022/01/12 05:28:05;;;;;;;5.35;3.60;;;4.60;97.10;;;;;;9184973;19;20526;-74
2022/01/12 05:31:14;;;;;;;6.25;3.83;;;4.60;97.10;;;;;;9185996;19;20476;-74
2022/01/12 05:34:25;;;;;;;6.15;4.18;;;4.60;97.10;;;;;;9185660;19;20025;-74
2022/01/12 05:37:30;;;;;;;5.60;3.60;;;4.60;97.10;;;;;;9184215;19;20090;-74
2022/01/12 05:40:35;;;;;;;6.82;4.00;;;4.70;97.10;;;;;;9185125;19;20044;-74
2022/01/12 05:43:44;;;;;;;7.45;4.38;;;4.70;97.10;;;;;;9185156;19;20018;-74
2022/01/12 05:46:49;;;;;;;10.25;4.38;;;4.70;97.10;;;;;;9186500;19;20033;-74
2022/01/12 05:49:57;;;;;;;7.32;4.72;;;4.70;97.10;;;;;;9185352;19;21558;-74
2022/01/12 05:53:02;;;;;;;8.55;4.40;;;4.70;97.10;;;;;;9182168;19;20015;-74
2022/01/12 05:56:08;;;;;;;7.07;4.35;;;4.70;97.10;;;;;;9184185;19;20506;-74
2022/01/12 05:59:13;;;;;;;6.38;4.03;;;4.70;97.10;;;;;;9184656;19;20020;-74
2022/01/12 06:02:18;;;;;;;7.95;4.55;;;4.70;97.10;;;;;;9183119;19;20018;-74
2022/01/12 06:05:28;;;;;;;6.40;4.03;;;4.70;97.10;;;;;;9185382;19;20480;-74
2022/01/12 06:08:35;;;;;;;7.30;3.90;;;4.70;97.10;;;;;;9184777;19;20022;-75
2022/01/12 06:11:40;;;;;;;7.55;4.28;;;4.70;97.10;;;;;;9184797;19;20014;-75
2022/01/12 06:14:45;;;;;;;7.10;4.50;;;4.70;97.10;;;;;;9187025;19;20044;-75
2022/01/12 06:17:51;;;;;;;8.25;4.45;;;4.70;97.10;;;;;;9185973;19;20021;-74
2022/01/12 06:21:00;;;;;;;9.07;4.43;;;4.70;97.10;;;;;;9184161;19;20360;-74
2022/01/12 06:24:10;;;;;;;8.83;4.20;;;4.70;97.10;;;;;;9182602;19;20010;-75
2022/01/12 06:27:17;;;;;;;7.95;4.30;;;4.70;97.10;;;;;;9184938;19;20492;-75
2022/01/12 06:33:44;;;;;;;7.10;4.38;;;4.80;97.20;;;;;;9183335;19;20010;-74
2022/01/12 06:36:52;;;;;;;7.97;4.70;;;4.80;97.20;;;;;;9185279;19;20026;-73
2022/01/12 06:39:57;;;;;;;7.00;4.50;;;4.80;97.20;;;;;;9181784;19;20018;-74
2022/01/12 06:43:04;;;;;;;8.02;4.68;;;4.80;97.20;;;;;;9180994;19;20010;-75
2022/01/12 06:46:10;;;;;;;8.43;4.78;;;4.80;97.20;;;;;;9181367;19;20017;-75
2022/01/12 06:49:16;;;;;;;8.70;4.80;;;4.80;97.20;;;;;;9181480;19;20018;-75
2022/01/12 06:52:24;;;;;;;7.88;4.50;;;4.80;97.20;;;;;;9180877;19;20010;-74
2022/01/12 06:55:34;;;;;;;8.35;4.47;;;4.80;97.20;;;;;;9177386;19;20010;-74
2022/01/12 06:58:39;;;;;;;8.18;4.65;;;4.80;97.20;;;;;;9182071;19;20011;-74
2022/01/12 07:01:44;;;;;;;10.23;5.05;;;4.80;97.20;;;;;;9181985;19;20014;-74
2022/01/12 07:04:52;;;;;;;11.13;5.38;;;4.80;97.20;;;;;;9181806;19;20341;-74
2022/01/12 07:08:02;;;;;;;8.95;4.75;;;4.90;97.20;;;;;;9180979;19;20376;-74
2022/01/12 07:11:12;;;;;;;8.02;4.50;;;4.90;97.20;;;;;;9180482;19;20101;-74
2022/01/12 07:14:18;;;;;;;8.55;5.32;;;4.90;97.20;;;;;;9176718;19;20026;-75
2022/01/12 07:17:23;;;;;;;11.95;5.45;;;4.90;97.20;;;;;;9177961;19;20021;-75
2022/01/12 07:20:28;;;;;;;7.40;4.47;;;4.90;97.20;;;;;;9178089;19;20481;-74
2022/01/12 07:23:36;;;;;;;10.00;5.75;;;4.90;97.20;;;;;;9179891;19;20018;-74
2022/01/12 07:26:41;;;;;;;8.23;4.75;;;4.90;97.20;;;;;;9178404;19;20010;-75
2022/01/12 07:29:47;;;;;;;8.07;5.05;;;4.90;97.20;;;;;;9179193;19;20766;-75
2022/01/12 07:32:52;;;;;;;9.52;4.95;;;4.90;97.20;;;;;;9179154;19;20018;-74
2022/01/12 07:35:57;;;;;;;7.78;4.53;;;4.90;97.20;;;;;;9180944;19;20030;-75
2022/01/12 07:39:05;;;;;;;8.73;4.80;;;4.90;97.20;;;;;;9181803;19;20017;-75
2022/01/12 07:42:11;;;;;;;7.63;4.70;;;4.90;97.20;;;;;;9179307;19;20034;-75
2022/01/12 07:45:17;;;;;;;9.43;5.20;;;4.90;97.20;;;;;;9181556;19;20021;-74
2022/01/12 07:48:22;;;;;;;10.13;5.07;;;4.90;97.20;;;;;;9187782;19;20023;-75
2022/01/12 07:51:27;;;;;;;8.48;4.95;;;4.90;97.20;;;;;;9188250;19;20341;-75
2022/01/12 07:54:35;;;;;;;9.00;4.65;;;4.90;97.20;;;;;;9187821;19;20103;-75
2022/01/12 07:57:42;;;;;;;7.47;4.60;;;4.90;97.20;;;;;;9186704;19;20018;-75
2022/01/12 08:00:47;;;;;;;8.27;4.30;;;5.00;97.20;;;;;;9186093;19;20014;-75
2022/01/12 08:03:52;;;;;;;6.65;4.38;;;4.90;97.20;;;;;;9188165;19;20088;-75
2022/01/12 08:06:57;;;;;;;9.38;5.43;;;4.90;97.20;;;;;;9185823;19;20902;-75
2022/01/12 08:10:06;;;;;;;6.95;4.70;;;4.90;97.20;;;;;;9186173;19;20018;-75
2022/01/12 08:13:11;;;;;;;8.35;5.00;;;5.00;97.20;;;;;;9186278;19;20014;-75
2022/01/12 08:16:16;;;;;;;8.60;4.80;;;5.00;97.20;;;;;;9188677;19;20464;-75
2022/01/12 08:19:23;;;;;;;7.78;4.93;;;5.00;97.20;;;;;;9187247;19;20093;-75
2022/01/12 08:22:28;;;;;;;5.88;3.88;;;5.00;97.20;;;;;;9189154;19;20018;-77
2022/01/12 08:25:36;;;;;;;7.00;4.43;;;5.00;97.20;;;;;;9189720;19;20022;-74
2022/01/12 08:28:42;;;;;;;6.82;4.35;;;5.00;97.20;;;;;;9187011;19;20479;-74
2022/01/12 08:31:48;;;;;;;10.93;4.60;;;5.00;97.20;;;;;;9186824;19;20022;-77
2022/01/12 08:34:53;;;;;;;8.23;4.30;;;5.00;97.20;;;;;;9187212;19;20049;-76
2022/01/12 08:37:58;;;;;;;7.82;4.72;;;5.00;97.20;;;;;;9187054;19;21499;-76
2022/01/12 08:41:06;;;;;;;7.90;4.60;;;5.00;97.20;;;;;;9188877;19;20508;-76
2022/01/12 08:44:12;;;;;;;8.45;4.45;;;5.10;97.30;;;;;;9184029;19;20492;-76
2022/01/12 08:47:18;;;;;;;7.20;4.50;;;5.10;97.30;;;;;;9187172;19;20477;-77
2022/01/12 08:50:23;;;;;;;7.20;4.43;;;5.10;97.30;;;;;;9186561;19;20014;-76
2022/01/12 08:53:28;;;;;;;6.68;4.53;;;5.10;97.30;;;;;;9185879;19;20014;-76
2022/01/12 08:56:37;;;;;;;7.40;4.40;;;5.10;97.30;;;;;;9188661;19;20010;-76
2022/01/12 08:59:42;;;;;;;7.45;4.30;;;5.10;97.30;;;;;;9185801;19;20014;-77
2022/01/12 09:02:47;;;;;;;5.88;3.95;;;5.10;97.30;;;;;;9182579;19;20019;-76
2022/01/12 09:05:53;;;;;;;5.45;3.78;;;5.20;97.30;;;;;;9186735;19;20007;-76
2022/01/12 09:08:58;;;;;;;6.07;4.25;;;5.20;97.30;;;;;;9187116;19;20020;-77
2022/01/12 09:12:07;;;;;;;8.23;4.22;;;5.20;97.30;;;;;;9184391;19;20007;-77
2022/01/12 09:15:14;;;;;;;7.93;4.80;;;5.20;97.30;;;;;;9182290;19;20055;-77
2022/01/12 09:18:19;;;;;;;7.15;4.20;;;5.20;97.30;;;;;;9184025;19;20014;-77
2022/01/12 09:21:25;;;;;;;8.23;4.53;;;5.30;97.40;;;;;;9185095;19;20365;-75
2022/01/12 09:24:30;;;;;;;6.63;4.25;;;5.30;97.40;;;;;;9180585;19;20022;-77
2022/01/12 09:27:43;;;;;;;6.95;4.22;;;5.30;97.40;;;;;;9182292;19;20014;-76
2022/01/12 09:30:48;;;;;;;7.22;3.97;;;5.30;97.40;;;;;;9184298;19;20030;-77
2022/01/12 09:33:53;;;;;;;6.25;3.97;;;5.40;97.40;;;;;;9184980;19;20010;-76
2022/01/12 09:36:58;;;;;;;9.68;4.32;;;5.40;97.40;;;;;;9183614;19;20480;-76
2022/01/12 09:40:03;;;;;;;7.57;3.95;;;5.40;97.40;;;;;;9183642;19;20094;-76
2022/01/12 09:43:11;;;;;;;7.75;4.18;;;5.40;97.40;;;;;;9185397;19;20022;-76
2022/01/12 09:46:16;;;;;;;6.82;3.85;;;5.50;97.50;;;;;;9184141;19;20350;-76
2022/01/12 09:49:21;;;;;;;7.47;3.97;;;5.50;97.40;;;;;;9184802;19;20025;-76
2022/01/12 09:52:26;;;;;;;7.15;3.58;;;5.60;97.50;;;;;;9183398;19;20011;-76
2022/01/12 09:55:31;;;;;;;6.85;3.80;;;5.60;97.40;;;;;;9181600;19;20010;-76
2022/01/12 09:58:38;;;;;;;7.57;3.50;;;5.60;97.40;;;;;;9185637;19;20018;-76
2022/01/12 10:01:48;;;;;;;6.28;3.17;;;5.60;97.50;;;;;;9184965;19;20031;-75
2022/01/12 10:05:02;;;;;;;5.95;3.20;;;5.70;97.50;;;;;;9185892;19;20026;-76
2022/01/12 10:08:15;;;;;;;7.07;3.60;;;5.70;97.70;;;;;;9185616;19;20011;-76
2022/01/12 10:11:20;;;;;;;7.73;3.93;;;5.70;97.50;;;;;;9182997;19;21519;-76
2022/01/12 10:14:41;;;;;;;6.05;3.78;;;5.80;97.50;;;;;;9183450;19;20496;-76
2022/01/12 10:17:50;;;;;;;5.65;3.20;;;5.80;97.50;;;;;;9182938;19;20010;-77
2022/01/12 10:20:56;;;;;;;6.93;3.50;;;5.90;97.50;;;;;;9186366;19;20017;-76
2022/01/12 10:24:18;;;;;;;6.47;2.95;;;5.90;97.50;;;;;;9182884;19;20034;-75
2022/01/12 10:27:23;;;;;;;7.20;3.60;;;5.90;97.50;;;;;;9184047;19;20559;-76
2022/01/12 10:30:37;;;;;;;5.85;2.97;;;6.00;97.50;;;;;;9184191;19;20022;-76
2022/01/12 10:33:42;;;;;;;5.03;2.95;;;6.00;97.50;;;;;;9183731;19;20010;-77
2022/01/12 10:36:50;;;;;;;4.13;2.70;;;6.00;97.50;;;;;;9184036;19;20346;-77
2022/01/12 10:40:00;;;;;;;5.03;2.17;;;6.10;97.50;;;;;;9184161;19;20011;-76
2022/01/12 10:43:07;;;;;;;5.32;2.20;;;6.10;97.50;;;;;;9183744;19;20476;-76
2022/01/12 10:46:18;;;;;;;4.50;2.20;;;6.10;97.50;;;;;;9183576;19;20033;-77
2022/01/12 10:49:30;;;;;;;5.55;2.65;;;6.10;97.40;;;;;;9185491;19;20019;-76
2022/01/12 10:52:39;;;;;;;4.65;1.90;;;6.20;97.50;;;;;;9182674;19;20025;-77
2022/01/12 10:55:44;;;;;;;6.07;2.42;;;6.20;97.50;;;;;;9181119;19;20010;-76
2022/01/12 10:58:50;;;;;;;5.10;2.58;;;6.20;97.40;;;;;;9185754;19;20026;-76
2022/01/12 11:02:00;;;;;;;4.53;2.30;;;6.20;97.40;;;;;;9181281;19;20017;-76
2022/01/12 11:05:07;;;;;;;3.58;2.20;;;6.30;97.40;;;;;;9182980;19;20017;-77
2022/01/12 11:08:14;;;;;;;4.55;2.20;;;6.30;97.50;;;;;;9180466;19;20021;-77
2022/01/12 11:11:20;;;;;;;4.22;2.20;;;6.30;97.50;;;;;;9181965;19;20365;-77
2022/01/12 11:14:26;;;;;;;3.25;1.90;;;6.30;97.40;;;;;;9181749;19;20018;-77
2022/01/12 11:17:33;;;;;;;4.68;1.92;;;6.40;97.50;;;;;;9180906;19;20034;-77
2022/01/12 11:20:43;;;;;;;6.90;2.63;;;6.40;97.40;;;;;;9179836;19;20018;-77
2022/01/12 11:23:49;;;;;;;5.78;2.38;;;6.40;97.40;;;;;;9181498;19;20025;-77
2022/01/12 11:26:55;;;;;;;3.40;2.20;;;6.40;97.40;;;;;;9178279;19;20026;-76
2022/01/12 11:30:00;;;;;;;4.93;2.40;;;6.50;97.50;;;;;;9178311;19;20086;-77
2022/01/12 11:33:11;;;;;;;3.22;2.10;;;6.50;97.70;;;;;;9178722;19;20353;-76
2022/01/12 11:36:19;;;;;;;3.92;2.13;;;6.50;97.40;;;;;;9180955;19;20464;-77
2022/01/12 11:39:25;;;;;;;3.70;2.25;;;6.50;97.40;;;;;;9183658;19;20044;-77
2022/01/12 11:42:37;;;;;;;3.78;1.88;;;6.60;97.40;;;;;;9181353;19;20338;-77
2022/01/12 11:45:42;;;;;;;3.83;2.53;;;6.60;97.40;;;;;;9177580;19;20376;-77
2022/01/12 11:48:52;;;;;;;3.88;2.10;;;6.60;97.40;;;;;;9179340;19;20010;-78
2022/01/12 11:51:57;;;;;;;3.50;1.88;;;6.60;97.40;;;;;;9177458;19;20021;-76
2022/01/12 11:55:12;;;;;;;5.57;2.30;;;6.70;97.40;;;;;;9176079;19;20014;-80
2022/01/12 11:58:19;;;;;;;2.83;1.80;;;6.70;97.40;;;;;;9180065;19;20014;-79
2022/01/12 12:01:25;;;;;;;4.07;1.95;;;6.70;97.40;;;;;;9180328;19;20015;-80
2022/01/12 12:04:34;;;;;;;3.25;1.60;;;6.70;97.40;;;;;;9177622;19;20022;-80
2022/01/12 12:07:48;;;;;;;1.88;1.45;;;6.70;97.40;;;;;;9178809;19;20102;-79
2022/01/12 12:10:55;;;;;;;3.17;1.63;;;6.70;97.40;;;;;;9179003;19;20019;-79
2022/01/12 12:14:09;;;;;;;2.25;1.50;;;6.80;97.40;;;;;;9178442;19;20480;-80
2022/01/12 12:17:14;;;;;;;3.35;1.48;;;6.80;97.40;;;;;;9178585;19;20015;-80
2022/01/12 12:20:24;;;;;;;3.75;1.70;;;6.80;97.40;;;;;;9178836;19;20023;-80
2022/01/12 12:23:32;;;;;;;3.70;1.70;;;6.80;97.40;;;;;;9178901;19;20049;-79
2022/01/12 12:26:45;;;;;;;3.15;1.85;;;6.80;97.40;;;;;;9179355;19;20030;-80
2022/01/12 12:29:52;;;;;;;2.87;1.43;;;6.90;97.40;;;;;;9179134;19;20524;-79
2022/01/12 12:32:59;;;;;;;2.92;1.80;;;6.90;97.40;;;;;;9179753;19;20010;-79
2022/01/12 12:36:07;;;;;;;6.38;2.28;;;6.90;97.40;;;;;;9190119;19;20014;-79
2022/01/12 12:39:14;;;;;;;5.47;1.90;;;6.90;97.40;;;;;;9189633;19;20019;-79
2022/01/12 12:42:21;;;;;;;3.28;1.83;;;7.00;97.40;;;;;;9189763;19;20012;-79
2022/01/12 12:45:36;;;;;;;4.10;2.20;;;7.00;97.40;;;;;;9186883;19;20022;-80
2022/01/12 12:48:43;;;;;;;3.80;2.17;;;7.00;97.30;;;;;;9191779;19;20007;-79
2022/01/12 12:51:51;;;;;;;4.90;2.40;;;7.10;97.40;;;;;;9190604;19;20025;-79
2022/01/12 12:54:58;;;;;;;5.55;2.70;;;7.10;97.30;;;;;;9186975;19;20041;-78
2022/01/12 12:58:03;;;;;;;4.50;2.15;;;7.10;97.30;;;;;;9188287;19;20483;-79
2022/01/12 13:01:09;;;;;;;5.13;2.40;;;7.10;97.20;;;;;;9189191;19;20025;-79
2022/01/12 13:04:16;;;;;;;4.20;2.08;;;7.10;97.20;;;;;;9187193;19;20086;-79
2022/01/12 13:07:27;;;;;;;3.65;2.20;;;7.10;97.10;;;;;;9189113;19;20014;-78
2022/01/12 13:10:34;;;;;;;3.95;2.47;;;7.10;97.10;;;;;;9188930;19;20014;-76
2022/01/12 13:13:39;;;;;;;6.20;2.30;;;7.10;97.10;;;;;;9188370;19;20014;-77
2022/01/12 13:16:48;;;;;;;6.13;2.75;;;7.00;97.10;;;;;;9189227;19;20483;-77
2022/01/12 13:23:14;;;;;;;6.20;3.28;;;7.00;97.00;;;;;;9188194;19;20479;-77
2022/01/12 13:26:24;;;;;;;6.10;2.92;;;7.00;97.00;;;;;;9184298;19;20015;-77
2022/01/12 13:29:29;;;;;;;4.65;2.30;;;7.00;97.00;;;;;;9183026;19;20025;-77
2022/01/12 13:32:36;;;;;;;4.78;2.53;;;7.00;97.00;;;;;;9183587;19;20018;-77
2022/01/12 13:35:42;;;;;;;4.75;2.35;;;7.00;97.00;;;;;;9187462;19;20018;-77
2022/01/12 13:38:57;;;;;;;4.93;2.78;;;7.00;97.10;;;;;;9185634;19;20014;-77
2022/01/12 13:42:02;;;;;;;5.93;2.53;;;7.00;97.10;;;;;;9184569;19;20021;-76
2022/01/12 13:45:14;;;;;;;6.38;2.60;;;7.00;97.00;;;;;;9183261;19;20361;-77
2022/01/12 13:48:21;;;;;;;4.97;2.90;;;7.00;97.10;;;;;;9182807;19;20045;-76
2022/01/12 13:51:28;;;;;;;4.68;2.60;;;7.00;97.00;;;;;;9182310;19;20018;-77
2022/01/12 13:54:38;;;;;;;4.38;2.30;;;7.00;97.10;;;;;;9180596;19;20025;-76
2022/01/12 13:57:43;;;;;;;6.40;2.85;;;7.00;97.00;;;;;;9183725;19;21072;-77
2022/01/12 14:00:48;;;;;;;4.50;2.40;;;7.00;97.00;;;;;;9182144;19;20017;-77
2022/01/12 14:04:05;;;;;;;5.18;2.40;;;7.00;97.00;;;;;;9182659;19;20003;-78
2022/01/12 14:07:11;;;;;;;4.60;2.38;;;7.00;97.00;;;;;;9182615;19;20014;-76
2022/01/12 14:10:19;;;;;;;4.75;2.38;;;7.00;97.00;;;;;;9184287;19;20019;-76
2022/01/12 14:13:31;;;;;;;7.00;2.30;;;7.00;97.00;;;;;;9183926;19;20006;-77
2022/01/12 14:16:41;;;;;;;4.03;1.98;;;7.00;97.00;;;;;;9183735;19;20014;-77
2022/01/12 14:19:54;;;;;;;7.82;2.55;;;6.90;96.90;;;;;;9182728;19;20022;-77
2022/01/12 14:23:00;;;;;;;5.97;2.70;;;7.00;96.90;;;;;;9183710;19;20085;-77
2022/01/12 14:26:08;;;;;;;5.88;2.83;;;7.00;96.90;;;;;;9181283;19;20021;-76
2022/01/12 14:29:13;;;;;;;3.78;2.45;;;6.90;96.80;;;;;;9180805;19;20014;-77
2022/01/12 14:32:18;;;;;;;4.85;2.55;;;6.90;96.80;;;;;;9183351;19;20029;-77
2022/01/12 14:35:26;;;;;;;4.43;2.30;;;6.90;96.80;;;;;;9182008;19;20361;-77
2022/01/12 14:38:31;;;;;;;4.57;2.20;;;6.90;96.80;;;;;;9181044;19;20041;-76
2022/01/12 14:41:39;;;;;;;3.85;2.15;;;6.80;96.80;;;;;;9181389;19;20363;-77
2022/01/12 14:44:46;;;;;;;6.35;2.95;;;6.80;96.80;;;;;;9182198;19;20010;-77
2022/01/12 14:47:54;;;;;;;6.82;2.72;;;6.80;96.80;;;;;;9182259;19;20010;-77
2022/01/12 14:51:01;;;;;;;5.05;2.45;;;6.80;96.80;;;;;;9181203;19;20018;-76
2022/01/12 14:54:07;;;;;;;3.95;2.13;;;6.80;96.80;;;;;;9180484;19;20010;-77
2022/01/12 14:57:15;;;;;;;5.57;2.35;;;6.70;96.80;;;;;;9180585;19;20468;-77
2022/01/12 15:00:24;;;;;;;5.50;2.60;;;6.70;96.80;;;;;;9179717;19;20010;-76
2022/01/12 15:03:32;;;;;;;6.95;2.47;;;6.70;96.80;;;;;;9179484;19;20014;-77
2022/01/12 15:06:37;;;;;;;4.97;2.63;;;6.70;96.70;;;;;;9178649;19;20666;-76
2022/01/12 15:09:43;;;;;;;6.00;2.60;;;6.70;96.70;;;;;;9178259;19;20018;-77
2022/01/12 15:12:56;;;;;;;6.38;2.63;;;6.60;96.70;;;;;;9178527;19;20086;-76
2022/01/12 15:16:01;;;;;;;4.40;2.55;;;6.60;96.70;;;;;;9177316;19;20014;-76
2022/01/12 15:19:06;;;;;;;4.65;2.70;;;6.60;96.70;;;;;;9178902;19;20018;-76
2022/01/12 15:22:11;;;;;;;6.93;2.92;;;6.50;96.70;;;;;;9180077;19;20010;-76
2022/01/12 15:25:19;;;;;;;5.45;2.70;;;6.60;96.70;;;;;;9180693;19;20014;-77
2022/01/12 15:28:27;;;;;;;4.85;3.03;;;6.50;96.70;;;;;;9177916;19;20015;-75
2022/01/12 15:31:32;;;;;;;4.35;2.88;;;6.50;96.70;;;;;;9180830;19;20022;-76
2022/01/12 15:34:58;;;;;;;4.88;3.10;;;6.50;96.70;;;;;;9177679;19;20094;-76
2022/01/12 15:38:04;;;;;;;6.47;3.47;;;6.40;96.70;;;;;;9177041;19;20353;-76
2022/01/12 15:41:09;;;;;;;7.10;3.65;;;6.40;96.70;;;;;;9177962;19;20014;-75
2022/01/12 15:44:16;;;;;;;5.78;3.67;;;6.40;96.70;;;;;;9180412;19;20025;-76
2022/01/12 15:47:21;;;;;;;5.90;3.50;;;6.30;96.60;;;;;;9176959;19;20010;-76
2022/01/12 15:50:26;;;;;;;5.85;3.58;;;6.30;96.60;;;;;;9177132;19;20011;-76
2022/01/12 15:53:31;;;;;;;6.78;3.60;;;6.30;96.60;;;;;;9174821;19;20019;-76
2022/01/12 15:56:36;;;;;;;7.28;3.50;;;6.30;96.60;;;;;;9177188;19;20022;-76
2022/01/12 15:59:45;;;;;;;7.53;4.10;;;6.20;96.60;;;;;;9178810;19;20011;-76
2022/01/12 16:02:50;;;;;;;7.07;3.70;;;6.20;96.60;;;;;;9177495;19;20590;-76
2022/01/12 16:05:56;;;;;;;8.93;4.32;;;6.20;96.60;;;;;;9177282;19;20010;-75
2022/01/12 16:09:01;;;;;;;6.82;3.63;;;6.10;96.60;;;;;;9183174;19;20025;-76
2022/01/12 16:12:07;;;;;;;8.70;3.88;;;6.10;96.60;;;;;;9191782;19;20457;-76
2022/01/12 16:15:37;;;;;;;6.88;4.47;;;6.10;96.70;;;;;;9186695;19;20031;-76
2022/01/12 16:18:42;;;;;;;8.38;4.32;;;6.10;96.60;;;;;;9186659;19;20049;-76
2022/01/12 16:21:47;;;;;;;7.75;4.13;;;6.00;96.60;;;;;;9187477;19;20014;-76
2022/01/12 16:24:53;;;;;;;7.82;3.80;;;6.00;96.60;;;;;;9186193;19;20018;-76
2022/01/12 16:27:59;;;;;;;7.13;3.90;;;6.00;96.60;;;;;;9184977;19;20011;-76
2022/01/12 16:31:18;;;;;;;6.05;3.70;;;6.00;96.60;;;;;;9186646;19;20365;-76
2022/01/12 16:34:23;;;;;;;9.10;4.30;;;5.90;96.60;;;;;;9185693;19;20018;-76
2022/01/12 16:37:28;;;;;;;6.90;3.67;;;5.90;96.60;;;;;;9186642;19;20010;-76
2022/01/12 16:40:33;;;;;;;6.03;3.78;;;5.90;96.60;;;;;;9187206;19;20011;-76
2022/01/12 16:43:38;;;;;;;13.15;4.43;;;5.90;96.60;;;;;;9188182;19;20011;-77
2022/01/12 16:46:46;;;;;;;8.48;3.75;;;5.80;96.60;;;;;;9184978;19;20023;-76
2022/01/12 16:49:53;;;;;;;7.75;3.90;;;5.80;96.60;;;;;;9182427;19;20010;-76
2022/01/12 16:52:58;;;;;;;6.32;4.10;;;5.70;96.60;;;;;;9179566;19;20017;-76
2022/01/12 16:56:03;;;;;;;7.90;4.47;;;5.70;96.60;;;;;;9183824;19;20602;-76
2022/01/12 16:59:08;;;;;;;8.00;4.47;;;5.70;96.60;;;;;;9184625;19;20051;-76
2022/01/12 17:02:16;;;;;;;6.10;3.85;;;5.70;96.60;;;;;;9187252;19;20007;-75
2022/01/12 17:05:21;;;;;;;10.07;4.85;;;5.70;96.60;;;;;;9186128;19;20022;-76
2022/01/12 17:08:26;;;;;;;6.45;4.20;;;5.60;96.60;;;;;;9183514;19;20022;-76
2022/01/12 17:11:31;;;;;;;8.85;4.38;;;5.60;96.60;;;;;;9182657;19;20010;-76
2022/01/12 17:14:36;;;;;;;8.18;4.30;;;5.60;96.60;;;;;;9183634;19;20105;-76
2022/01/12 17:18:17;;;;;;;7.50;4.57;;;5.60;96.60;;;;;;9182798;19;20023;-76
2022/01/12 17:21:25;;;;;;;9.30;4.55;;;5.60;96.60;;;;;;9180425;19;20018;-76
2022/01/12 17:24:31;;;;;;;7.82;4.35;;;5.50;96.60;;;;;;9180841;19;20111;-77
2022/01/12 17:27:40;;;;;;;7.57;4.80;;;5.50;96.60;;;;;;9182713;19;20018;-76
2022/01/12 17:30:45;;;;;;;7.50;4.50;;;5.50;96.60;;;;;;9183615;19;20019;-76
2022/01/12 17:33:52;;;;;;;9.85;5.03;;;5.50;96.60;;;;;;9186350;19;20074;-76
2022/01/12 17:37:03;;;;;;;8.50;5.03;;;5.40;96.60;;;;;;9184651;19;20011;-76